Latest Weather Observations for Yeppoon

IDQ60801

Issued at 7:33 pm EST Monday 25 July 2016 (issued every 30 minutes, with the page automatically refreshed every 10 minutes)

About weather observations | Map of weather stations | Latest weather observations for QLD | Other Formats
Station Details ID: 033294 Name: YEPPOON THE ESPLANADE Lat: -23.14 Lon: 150.75 Height: 5.5 m
Data from the previous 72 hours. | See also: Recent months at Yeppoon
Date/Time
EST
Temp
°C
App
Temp
°C
Dew
Point
°C
Rel
Hum
%
Delta-T
°C
Wind Press
QNH
hPa
Press
MSL
hPa
Rain since
9am
mm
Dir  Spd
km/h
Gust
km/h
Spd
kts
Gust
kts
25/07:30pm 16.8 17.5 14.5 86 1.3 NNW 4 6 2 3 1017.6 1017.6 0.0
25/07:00pm 17.6 19.2 14.8 84 1.6 CALM 0 0 0 0 1017.2 1017.2 0.0
25/06:30pm 18.6 20.0 14.3 76 2.5 CALM 0 0 0 0 1016.8 1016.8 0.0
25/06:00pm 20.0 19.8 13.5 66 3.7 N 7 9 4 5 1016.4 1016.4 0.0
25/05:30pm 20.6 20.4 13.6 64 4.0 N 7 9 4 5 1016.1 1016.1 0.0
25/05:00pm 21.1 20.3 14.0 64 4.1 N 11 13 6 7 1016.0 1016.0 0.0
25/04:30pm 21.5 20.8 13.3 59 4.7 NNE 9 13 5 7 1015.8 1015.8 0.0
25/04:00pm 22.1 21.7 13.0 56 5.2 NNE 7 9 4 5 1015.8 1015.8 0.0
25/03:30pm 22.3 21.3 13.3 56 5.2 NE 11 15 6 8 1015.7 1015.7 0.0
25/03:00pm 22.2 20.5 13.7 58 4.9 NE 15 17 8 9 1015.5 1015.5 0.0
25/02:30pm 22.1 20.0 12.4 54 5.5 ENE 15 19 8 10 1015.8 1015.8 0.0
25/02:00pm 22.0 19.7 13.1 57 5.1 ENE 17 20 9 11 1016.0 1016.0 0.0
25/01:30pm 22.0 19.4 13.1 57 5.1 ENE 19 20 10 11 1016.2 1016.2 0.0
25/01:00pm 22.3 19.3 12.4 53 5.6 E 20 22 11 12 1016.6 1016.6 0.0
25/12:30pm 22.4 19.7 13.4 56 5.2 E 20 24 11 13 1017.1 1017.1 0.0
25/12:00pm 23.2 22.3 12.5 51 6.1 SSE 9 17 5 9 1017.4 1017.4 0.0
25/11:30am 22.8 21.5 12.4 52 5.9 S 11 19 6 10 1018.0 1018.0 0.0
25/11:00am 22.4 20.9 13.0 55 5.4 S 13 19 7 10 1018.2 1018.2 0.0
25/10:30am 22.0 20.0 12.7 55 5.3 S 15 22 8 12 1018.6 1018.6 0.0
25/10:00am 21.8 19.6 12.0 53 5.5 S 15 30 8 16 1018.7 1018.7 0.0
25/09:30am 21.3 20.6 15.4 69 3.5 SSW 13 19 7 10 1018.7 1018.7 0.0
25/09:00am 20.5 19.6 14.9 70 3.3 SSW 13 20 7 11 1018.5 1018.5 0.2
25/08:30am 19.5 19.6 17.4 88 1.3 WSW 13 17 7 9 1018.3 1018.3 0.2
25/08:00am 19.3 19.6 18.0 92 0.8 SW 13 17 7 9 1017.8 1017.8 0.2
25/07:30am 19.0 19.3 18.0 94 0.6 WSW 13 20 7 11 1017.4 1017.4 0.2
25/07:00am 19.2 19.8 18.7 97 0.3 WSW 13 19 7 10 1017.1 1017.1 0.2
25/06:30am 19.1 20.6 18.8 98 0.2 SW 9 15 5 8 1016.7 1016.7 0.2
25/06:00am 19.0 19.6 18.7 98 0.2 WSW 13 19 7 10 1016.2 1016.2 0.2
25/05:30am 19.0 19.3 18.7 98 0.2 WSW 15 22 8 12 1015.9 1015.9 0.2
25/05:00am 18.4 18.8 18.2 99 0.1 WSW 13 17 7 9 1015.6 1015.6 0.2
25/04:30am 17.6 18.4 17.4 99 0.1 WSW 9 11 5 6 1015.4 1015.4 0.2
25/04:00am 17.3 18.0 17.1 99 0.1 W 9 13 5 7 1015.2 1015.2 0.2
25/03:30am 17.4 18.2 17.4 100 0.0 W 9 13 5 7 1015.2 1015.2 0.0
25/03:00am 17.2 17.5 17.0 99 0.1 W 11 13 6 7 1015.1 1015.1 0.0
25/02:30am 17.3 18.0 17.1 99 0.1 W 9 11 5 6 1015.2 1015.2 0.0
25/02:00am 17.4 18.7 17.2 99 0.1 W 6 9 3 5 1015.2 1015.2 0.0
25/01:30am 17.9 19.3 17.7 99 0.1 W 7 9 4 5 1015.2 1015.2 0.0
25/01:00am 17.8 19.2 17.3 97 0.3 W 6 7 3 4 1015.4 1015.4 0.0
25/12:30am 18.0 19.0 17.7 98 0.2 W 9 11 5 6 1015.7 1015.7 0.0
25/12:00am 18.4 20.1 18.1 98 0.2 W 6 9 3 5 1015.7 1015.7 0.0
 
Date/Time
EST
Temp
°C
App
Temp
°C
Dew
Point
°C
Rel
Hum
%
Delta-T
°C
Wind Press
QNH
hPa
Press
MSL
hPa
Rain since
9am
mm
Dir  Spd
km/h
Gust
km/h
Spd
kts
Gust
kts
24/11:30pm 18.5 20.1 18.2 98 0.2 W 7 9 4 5 1015.8 1015.8 0.0
24/11:00pm 19.1 22.3 18.8 98 0.2 CALM 0 0 0 0 1016.0 1016.0 0.0
24/10:30pm 19.3 22.6 19.0 98 0.2 CALM 0 0 0 0 1016.1 1016.1 0.0
24/10:00pm 19.2 21.1 18.9 98 0.2 W 7 9 4 5 1016.1 1016.1 0.0
24/09:30pm 19.6 21.2 19.1 97 0.3 W 9 11 5 6 1015.9 1015.9 0.0
24/09:00pm 19.6 21.8 19.3 98 0.2 N 6 7 3 4 1015.7 1015.7 0.0
24/08:30pm 19.9 22.2 19.4 97 0.3 N 6 6 3 3 1015.4 1015.4 0.0
24/08:00pm 20.4 24.0 19.8 96 0.4 CALM 0 2 0 1 1015.3 1015.3 0.0
24/07:30pm 21.3 23.5 20.5 95 0.5 N 9 11 5 6 1015.0 1015.0 0.0
24/07:00pm 21.4 22.8 20.3 93 0.7 N 13 17 7 9 1014.7 1014.7 0.0
24/06:30pm 21.5 22.9 20.3 93 0.8 N 13 17 7 9 1014.4 1014.4 0.0
24/06:00pm 21.6 23.4 20.4 93 0.8 NNE 11 15 6 8 1014.2 1014.2 0.0
24/05:30pm 21.7 23.4 20.1 91 1.0 NNE 11 13 6 7 1013.9 1013.9 0.0
24/05:00pm 21.9 23.0 19.7 87 1.4 NNE 13 15 7 8 1013.7 1013.7 0.0
24/04:30pm 22.2 23.3 19.7 86 1.6 NE 13 15 7 8 1013.6 1013.6 0.0
24/04:00pm 22.4 23.6 19.9 86 1.6 NNE 13 15 7 8 1013.5 1013.5 0.0
24/03:30pm 22.3 23.5 19.8 86 1.6 NE 13 15 7 8 1013.3 1013.3 0.0
24/03:00pm 22.5 23.2 19.7 84 1.8 NE 15 19 8 10 1013.5 1013.5 0.0
24/02:30pm 22.7 23.9 19.9 84 1.8 ENE 13 15 7 8 1013.6 1013.6 0.0
24/02:00pm 22.5 23.1 19.5 83 1.9 ENE 15 15 8 8 1013.8 1013.8 0.0
24/01:30pm 22.5 23.6 19.7 84 1.8 ENE 13 15 7 8 1014.2 1014.2 0.0
24/01:00pm 22.8 23.4 19.5 81 2.1 E 15 19 8 10 1014.6 1014.6 0.0
24/12:30pm 22.6 22.9 19.5 82 2.0 E 17 19 9 10 1014.9 1014.9 0.0
24/12:00pm 22.7 23.6 19.2 80 2.2 ENE 13 15 7 8 1015.5 1015.5 0.0
24/11:30am 22.7 24.3 19.9 84 1.8 NE 11 13 6 7 1016.0 1016.0 0.0
24/11:00am 22.7 24.8 20.1 85 1.7 NNE 9 11 5 6 1016.4 1016.4 0.0
24/10:30am 22.4 25.1 20.2 87 1.4 NNE 6 7 3 4 1016.6 1016.6 0.0
24/10:00am 21.8 23.9 19.4 86 1.5 NE 7 9 4 5 1016.8 1016.8 0.0
24/09:30am 21.2 23.0 19.5 90 1.1 NNE 9 13 5 7 1016.7 1016.7 0.0
24/09:00am 21.3 23.0 19.4 89 1.2 W 9 11 5 6 1016.5 1016.5 0.0
24/08:30am 20.5 22.1 19.2 92 0.8 W 9 13 5 7 1016.3 1016.3 0.0
24/08:00am 19.8 21.3 19.0 95 0.5 W 9 13 5 7 1016.0 1016.0 0.0
24/07:30am 19.3 19.6 18.7 96 0.4 W 15 17 8 9 1015.6 1015.6 0.0
24/07:00am 19.0 18.9 18.7 98 0.2 WSW 17 19 9 10 1015.1 1015.1 0.0
24/06:30am 18.6 19.1 18.3 98 0.2 WSW 13 15 7 8 1014.9 1014.9 0.0
24/06:00am 18.5 18.5 18.2 98 0.2 WSW 15 17 8 9 1014.6 1014.6 0.0
24/05:30am 18.5 18.9 18.2 98 0.2 WSW 13 19 7 10 1014.3 1014.3 0.0
24/05:00am 18.4 18.3 17.9 97 0.3 WSW 15 19 8 10 1013.9 1013.9 0.0
24/04:30am 18.5 18.8 17.8 96 0.4 WSW 13 17 7 9 1013.6 1013.6 0.0
24/04:00am 18.5 19.1 17.8 96 0.4 W 11 15 6 8 1013.4 1013.4 0.0
24/03:30am 18.5 19.1 17.8 96 0.4 W 11 15 6 8 1013.2 1013.2 0.0
24/03:00am 18.6 19.7 17.9 96 0.4 WSW 9 13 5 7 1013.3 1013.3 0.0
24/02:30am 18.8 19.9 18.0 95 0.5 W 9 13 5 7 1013.1 1013.1 0.0
24/02:00am 19.1 20.6 18.1 94 0.6 WSW 7 11 4 6 1013.1 1013.1 0.0
24/01:30am 19.2 21.0 18.2 94 0.6 W 6 9 3 5 1013.3 1013.3 0.0
24/01:00am 19.3 22.2 18.3 94 0.6 CALM 0 0 0 0 1013.8 1013.8 0.0
24/12:30am 19.4 20.7 18.4 94 0.6 W 9 13 5 7 1013.6 1013.6 0.0
24/12:00am 19.5 21.3 18.4 93 0.7 WNW 6 9 3 5 1013.5 1013.5 0.0
 
Date/Time
EST
Temp
°C
App
Temp
°C
Dew
Point
°C
Rel
Hum
%
Delta-T
°C
Wind Press
QNH
hPa
Press
MSL
hPa
Rain since
9am
mm
Dir  Spd
km/h
Gust
km/h
Spd
kts
Gust
kts
23/11:30pm 19.7 21.4 18.6 93 0.7 W 7 11 4 6 1013.8 1013.8 0.0
23/11:00pm 20.0 21.8 18.7 92 0.8 W 7 11 4 6 1013.9 1013.9 0.0
23/10:30pm 20.1 21.6 19.0 93 0.7 W 9 11 5 6 1013.9 1013.9 0.0
23/10:00pm 20.2 21.0 19.1 93 0.7 WSW 13 15 7 8 1013.9 1013.9 0.0
23/09:30pm 19.9 22.0 18.9 94 0.6 W 6 9 3 5 1013.7 1013.7 0.0
23/09:00pm 20.1 23.4 19.1 94 0.6 CALM 0 0 0 0 1013.6 1013.6 0.0
23/08:30pm 20.4 23.8 19.3 93 0.7 CALM 0 0 0 0 1013.4 1013.4 0.0
23/08:00pm 20.6 23.9 19.2 92 0.9 CALM 0 0 0 0 1013.0 1013.0 0.0
23/07:30pm 21.6 23.6 20.0 91 1.0 N 9 11 5 6 1012.8 1012.8 0.0
23/07:00pm 22.2 24.9 20.2 88 1.3 N 6 9 3 5 1012.4 1012.4 0.0
23/06:30pm 23.1 25.4 19.8 82 2.1 WNW 7 9 4 5 1012.2 1012.2 0.0
23/06:00pm 23.9 25.4 19.7 77 2.7 NNW 11 17 6 9 1012.0 1012.0 0.0
23/05:30pm 24.2 26.1 19.7 76 2.9 N 9 13 5 7 1011.9 1011.9 0.0
23/05:00pm 25.4 27.0 18.3 65 4.5 NW 7 11 4 6 1011.8 1011.8 0.0
23/04:30pm 25.9 27.1 18.3 63 4.8 WNW 9 15 5 8 1011.8 1011.8 0.0
23/04:00pm 25.9 26.5 17.8 61 5.1 WNW 11 17 6 9 1011.7 1011.7 0.0
23/03:30pm 25.4 26.2 18.1 64 4.6 NW 11 19 6 10 1011.8 1011.8 0.0
23/03:00pm 24.0 26.6 20.1 79 2.5 NE 6 9 3 5 1012.0 1012.0 0.0
23/02:30pm 23.6 26.4 20.4 82 2.1 NNE 6 9 3 5 1012.1 1012.1 0.0
23/02:00pm 22.8 25.6 20.5 87 1.5 NNE 6 9 3 5 1012.4 1012.4 0.0
23/01:30pm 22.6 24.0 20.4 87 1.4 N 13 17 7 9 1012.6 1012.6 0.0
23/01:00pm 22.2 23.1 20.0 87 1.4 NNE 15 17 8 9 1013.0 1013.0 0.0
23/12:30pm 22.4 24.5 20.1 87 1.5 NNE 9 15 5 8 1013.5 1013.5 0.0
23/12:00pm 21.9 23.4 19.7 87 1.4 NNE 11 15 6 8 1013.9 1013.9 0.0
23/11:30am 21.9 23.9 19.2 85 1.7 ENE 7 9 4 5 1014.5 1014.5 0.0
23/11:00am 21.4 23.2 19.5 89 1.2 NE 9 13 5 7 1014.8 1014.8 0.0
23/10:30am 21.6 23.3 19.4 87 1.4 NNE 9 13 5 7 1015.2 1015.2 0.0
23/10:00am 20.9 22.6 18.5 86 1.5 ENE 7 9 4 5 1015.7 1015.7 0.0
23/09:30am 20.2 22.0 18.8 92 0.9 WNW 7 13 4 7 1015.8 1015.8 0.0
23/09:00am 19.2 20.6 18.6 96 0.4 W 9 15 5 8 1015.8 1015.8 -
23/08:30am 18.5 19.4 18.3 99 0.1 W 11 17 6 9 1015.9 1015.9 -
23/08:00am 17.8 18.8 17.8 100 0.0 WSW 9 15 5 8 1015.7 1015.7 -
23/07:30am 16.8 18.0 16.8 100 0.0 W 6 9 3 5 1015.5 1015.5 -
23/07:00am 16.4 16.8 16.4 100 0.0 WSW 9 13 5 7 1015.2 1015.2 -
23/06:30am 15.9 16.2 15.9 100 0.0 WSW 9 11 5 6 1015.0 1015.0 -
23/06:00am 16.0 15.9 16.0 100 0.0 W 11 13 6 7 1014.6 1014.6 -
23/05:30am 15.2 14.4 15.2 100 0.0 W 13 15 7 8 1014.0 1014.0 -
23/05:00am 15.4 15.5 15.4 100 0.0 W 9 13 5 7 1013.9 1013.9 -
23/04:30am 15.7 15.5 15.7 100 0.0 WSW 11 13 6 7 1013.7 1013.7 -
23/04:00am 15.6 16.3 15.6 100 0.0 W 6 9 3 5 1013.7 1013.7 -
23/03:30am 15.6 16.2 15.4 99 0.1 W 6 9 3 5 1013.7 1013.7 -
23/03:00am 16.0 16.6 15.8 99 0.1 W 7 9 4 5 1013.8 1013.8 0.0
23/02:30am 15.8 16.3 15.5 98 0.2 W 7 11 4 6 1013.8 1013.8 -
23/02:00am 16.1 16.7 15.8 98 0.2 W 7 9 4 5 1014.0 1014.0 -
23/01:30am 16.4 16.7 16.1 98 0.2 W 9 11 5 6 1014.1 1014.1 -
23/01:00am 16.5 16.9 16.2 98 0.2 W 9 11 5 6 1014.4 1014.4 -
23/12:30am 17.0 18.1 16.5 97 0.3 W 6 7 3 4 1014.6 1014.6 -
23/12:00am 17.3 19.3 17.0 98 0.2 W 2 7 1 4 1014.7 1014.7 -
 
Date/Time
EST
Temp
°C
App
Temp
°C
Dew
Point
°C
Rel
Hum
%
Delta-T
°C
Wind Press
QNH
hPa
Press
MSL
hPa
Rain since
9am
mm
Dir  Spd
km/h
Gust
km/h
Spd
kts
Gust
kts
22/11:30pm 17.3 18.9 16.8 97 0.3 WNW 4 7 2 4 1014.9 1014.9 -
22/11:00pm 17.9 20.4 17.2 96 0.4 CALM 0 6 0 3 1014.9 1014.9 -
22/10:30pm 18.3 19.8 17.6 96 0.4 WNW 6 7 3 4 1015.0 1015.0 -
22/10:00pm 18.8 21.1 17.7 93 0.7 N 2 6 1 3 1015.2 1015.2 -
22/09:30pm 20.1 21.9 18.8 92 0.8 N 7 9 4 5 1015.2 1015.2 -
22/09:00pm 20.0 22.6 18.4 90 1.0 N 2 7 1 4 1015.2 1015.2 0.0
22/08:30pm 20.1 21.4 18.5 90 1.0 N 9 15 5 8 1015.0 1015.0 -
22/08:00pm 20.4 20.8 19.0 92 0.9 N 15 19 8 10 1015.1 1015.1 -

Other Formats:

Comma delimited format used in spreadsheet applications
http://www.bom.gov.au/fwo/IDQ60801/IDQ60801.94373.axf

JavaScript Object Notation format (JSON) in row-major order
http://www.bom.gov.au/fwo/IDQ60801/IDQ60801.94373.json